sensor_id;sensor_type;location;lat;lon;timestamp;pressure;altitude;pressure_sealevel;temperature;humidity
11343;BME280;5726;42.160;24.746;2023-02-02T00:01:31;99644.06;;;7.30;63.45
11343;BME280;5726;42.160;24.746;2023-02-02T00:03:57;99645.09;;;7.14;64.35
11343;BME280;5726;42.160;24.746;2023-02-02T00:06:26;99656.84;;;7.18;64.02
11343;BME280;5726;42.160;24.746;2023-02-02T00:08:52;99660.59;;;7.37;63.80
11343;BME280;5726;42.160;24.746;2023-02-02T00:11:19;99663.03;;;7.63;63.18
11343;BME280;5726;42.160;24.746;2023-02-02T00:13:45;99657.41;;;7.50;63.77
11343;BME280;5726;42.160;24.746;2023-02-02T00:16:20;99657.66;;;7.28;64.54
11343;BME280;5726;42.160;24.746;2023-02-02T00:19:03;99661.59;;;7.11;65.16
11343;BME280;5726;42.160;24.746;2023-02-02T00:21:28;99662.44;;;7.26;64.91
11343;BME280;5726;42.160;24.746;2023-02-02T00:23:54;99661.13;;;7.29;65.26
11343;BME280;5726;42.160;24.746;2023-02-02T00:26:20;99674.47;;;7.44;64.85
11343;BME280;5726;42.160;24.746;2023-02-02T00:28:46;99671.53;;;7.50;65.06
11343;BME280;5726;42.160;24.746;2023-02-02T00:31:11;99665.16;;;7.56;65.05
11343;BME280;5726;42.160;24.746;2023-02-02T00:33:37;99665.19;;;7.76;64.25
11343;BME280;5726;42.160;24.746;2023-02-02T00:36:03;99659.84;;;7.66;64.27
11343;BME280;5726;42.160;24.746;2023-02-02T00:38:29;99662.50;;;7.71;63.88
11343;BME280;5726;42.160;24.746;2023-02-02T00:40:54;99669.66;;;7.36;64.90
11343;BME280;5726;42.160;24.746;2023-02-02T00:43:20;99665.34;;;7.25;64.81
11343;BME280;5726;42.160;24.746;2023-02-02T00:45:46;99659.72;;;7.02;65.46
11343;BME280;5726;42.160;24.746;2023-02-02T00:48:11;99665.63;;;7.23;65.01
11343;BME280;5726;42.160;24.746;2023-02-02T00:50:37;99652.81;;;7.15;65.36
11343;BME280;5726;42.160;24.746;2023-02-02T00:53:02;99658.63;;;7.03;65.94
11343;BME280;5726;42.160;24.746;2023-02-02T00:55:28;99654.81;;;6.74;66.41
11343;BME280;5726;42.160;24.746;2023-02-02T00:57:53;99647.34;;;6.76;66.67
11343;BME280;5726;42.160;24.746;2023-02-02T01:00:21;99638.91;;;7.04;65.73
11343;BME280;5726;42.160;24.746;2023-02-02T01:02:51;99648.47;;;6.90;65.37
11343;BME280;5726;42.160;24.746;2023-02-02T01:05:18;99650.88;;;6.91;65.84
11343;BME280;5726;42.160;24.746;2023-02-02T01:07:44;99667.25;;;7.24;65.11
11343;BME280;5726;42.160;24.746;2023-02-02T01:10:15;99663.53;;;7.40;64.34
11343;BME280;5726;42.160;24.746;2023-02-02T01:12:41;99665.16;;;7.51;63.62
11343;BME280;5726;42.160;24.746;2023-02-02T01:15:08;99660.84;;;7.35;64.01
11343;BME280;5726;42.160;24.746;2023-02-02T01:17:34;99664.63;;;7.49;63.25
11343;BME280;5726;42.160;24.746;2023-02-02T01:19:59;99660.88;;;7.40;62.87
11343;BME280;5726;42.160;24.746;2023-02-02T01:22:25;99673.06;;;7.12;64.08
11343;BME280;5726;42.160;24.746;2023-02-02T01:24:51;99669.34;;;7.17;63.87
11343;BME280;5726;42.160;24.746;2023-02-02T01:27:16;99680.53;;;7.10;64.28
11343;BME280;5726;42.160;24.746;2023-02-02T01:29:42;99677.59;;;7.06;64.82
11343;BME280;5726;42.160;24.746;2023-02-02T01:32:08;99671.22;;;7.22;64.44
11343;BME280;5726;42.160;24.746;2023-02-02T01:34:33;99672.25;;;7.11;64.86
11343;BME280;5726;42.160;24.746;2023-02-02T01:36:59;99675.72;;;7.02;65.16
11343;BME280;5726;42.160;24.746;2023-02-02T01:39:24;99675.28;;;6.68;66.45
11343;BME280;5726;42.160;24.746;2023-02-02T01:41:50;99666.88;;;6.91;66.12
11343;BME280;5726;42.160;24.746;2023-02-02T01:47:15;99660.81;;;7.20;65.23
11343;BME280;5726;42.160;24.746;2023-02-02T01:49:41;99663.19;;;7.07;65.55
11343;BME280;5726;42.160;24.746;2023-02-02T01:52:07;99669.91;;;7.19;65.37
11343;BME280;5726;42.160;24.746;2023-02-02T01:54:39;99666.09;;;7.06;66.14
11343;BME280;5726;42.160;24.746;2023-02-02T01:57:09;99660.03;;;7.25;65.62
11343;BME280;5726;42.160;24.746;2023-02-02T01:59:37;99664.47;;;7.00;66.27
11343;BME280;5726;42.160;24.746;2023-02-02T02:02:03;99666.03;;;6.86;66.61
11343;BME280;5726;42.160;24.746;2023-02-02T02:04:29;99670.31;;;6.87;66.99
11343;BME280;5726;42.160;24.746;2023-02-02T02:06:55;99669.84;;;7.10;66.73
11343;BME280;5726;42.160;24.746;2023-02-02T02:09:21;99663.47;;;7.15;66.39
11343;BME280;5726;42.160;24.746;2023-02-02T02:11:47;99665.66;;;7.33;65.73
11343;BME280;5726;42.160;24.746;2023-02-02T02:14:13;99672.56;;;7.24;66.17
11343;BME280;5726;42.160;24.746;2023-02-02T02:36:50;99654.28;;;6.82;68.02
11343;BME280;5726;42.160;24.746;2023-02-02T02:42:17;99665.00;;;6.87;67.98
11343;BME280;5726;42.160;24.746;2023-02-02T02:44:46;99660.13;;;6.79;68.09
11343;BME280;5726;42.160;24.746;2023-02-02T02:47:12;99658.69;;;6.57;69.51
11343;BME280;5726;42.160;24.746;2023-02-02T02:49:46;99654.88;;;6.94;68.29
11343;BME280;5726;42.160;24.746;2023-02-02T02:52:12;99653.81;;;7.00;67.56
11343;BME280;5726;42.160;24.746;2023-02-02T02:54:52;99650.88;;;6.91;68.10
11343;BME280;5726;42.160;24.746;2023-02-02T02:57:31;99645.88;;;7.05;68.04
11343;BME280;5726;42.160;24.746;2023-02-02T03:02:41;99637.38;;;6.52;68.92
11343;BME280;5726;42.160;24.746;2023-02-02T03:05:53;99635.50;;;6.52;68.83
11343;BME280;5726;42.160;24.746;2023-02-02T03:08:29;99641.47;;;6.69;68.35
11343;BME280;5726;42.160;24.746;2023-02-02T03:10:57;99635.56;;;6.62;68.39
11343;BME280;5726;42.160;24.746;2023-02-02T03:13:24;99641.72;;;6.67;68.41
11343;BME280;5726;42.160;24.746;2023-02-02T03:15:51;99643.09;;;6.75;68.16
11343;BME280;5726;42.160;24.746;2023-02-02T03:18:18;99634.31;;;6.84;67.50
11343;BME280;5726;42.160;24.746;2023-02-02T03:20:45;99635.69;;;6.87;67.69
11343;BME280;5726;42.160;24.746;2023-02-02T03:23:11;99636.78;;;6.96;67.12
11343;BME280;5726;42.160;24.746;2023-02-02T03:25:37;99641.00;;;6.92;67.21
11343;BME280;5726;42.160;24.746;2023-02-02T03:28:04;99637.03;;;7.04;66.83
11343;BME280;5726;42.160;24.746;2023-02-02T03:30:30;99636.25;;;6.99;67.14
11343;BME280;5726;42.160;24.746;2023-02-02T03:32:56;99630.16;;;7.28;65.91
11343;BME280;5726;42.160;24.746;2023-02-02T03:35:21;99628.81;;;7.15;66.37
11343;BME280;5726;42.160;24.746;2023-02-02T03:37:47;99630.97;;;7.18;66.11
11343;BME280;5726;42.160;24.746;2023-02-02T03:40:12;99632.50;;;7.00;67.03
11343;BME280;5726;42.160;24.746;2023-02-02T03:42:38;99632.00;;;7.08;66.46
11343;BME280;5726;42.160;24.746;2023-02-02T03:45:04;99632.88;;;7.33;66.36
11343;BME280;5726;42.160;24.746;2023-02-02T03:47:30;99628.84;;;7.30;66.30
11343;BME280;5726;42.160;24.746;2023-02-02T03:49:57;99628.88;;;7.65;65.02
11343;BME280;5726;42.160;24.746;2023-02-02T03:52:22;99626.75;;;7.52;65.62
11343;BME280;5726;42.160;24.746;2023-02-02T03:54:48;99620.63;;;7.61;65.39
11343;BME280;5726;42.160;24.746;2023-02-02T03:57:13;99628.88;;;7.75;65.15
11343;BME280;5726;42.160;24.746;2023-02-02T03:59:39;99625.66;;;7.48;65.86
11343;BME280;5726;42.160;24.746;2023-02-02T04:02:04;99622.47;;;7.71;65.41
11343;BME280;5726;42.160;24.746;2023-02-02T04:04:29;99618.75;;;7.52;65.50
11343;BME280;5726;42.160;24.746;2023-02-02T04:06:55;99626.22;;;7.75;65.12
11343;BME280;5726;42.160;24.746;2023-02-02T04:09:22;99620.06;;;7.84;64.19
11343;BME280;5726;42.160;24.746;2023-02-02T04:11:48;99618.22;;;7.70;64.82
11343;BME280;5726;42.160;24.746;2023-02-02T04:14:13;99631.56;;;7.60;65.24
11343;BME280;5726;42.160;24.746;2023-02-02T04:16:39;99626.22;;;7.55;65.59
11343;BME280;5726;42.160;24.746;2023-02-02T04:19:04;99626.19;;;7.50;65.52
11343;BME280;5726;42.160;24.746;2023-02-02T04:21:30;99627.81;;;7.66;65.14
11343;BME280;5726;42.160;24.746;2023-02-02T04:23:55;99626.75;;;7.67;65.25
11343;BME280;5726;42.160;24.746;2023-02-02T04:26:21;99630.47;;;7.41;66.26
11343;BME280;5726;42.160;24.746;2023-02-02T04:28:50;99643.53;;;7.33;66.67
11343;BME280;5726;42.160;24.746;2023-02-02T04:31:15;99633.69;;;7.48;66.13
11343;BME280;5726;42.160;24.746;2023-02-02T04:33:41;99647.31;;;7.57;65.87
11343;BME280;5726;42.160;24.746;2023-02-02T04:36:06;99640.59;;;7.34;66.02
11343;BME280;5726;42.160;24.746;2023-02-02T04:38:32;99643.25;;;7.29;66.35
11343;BME280;5726;42.160;24.746;2023-02-02T04:40:57;99655.00;;;7.28;66.76
11343;BME280;5726;42.160;24.746;2023-02-02T04:43:23;99648.06;;;7.42;65.84
11343;BME280;5726;42.160;24.746;2023-02-02T04:45:54;99656.53;;;7.14;66.86
11343;BME280;5726;42.160;24.746;2023-02-02T04:48:20;99655.47;;;7.11;66.79
11343;BME280;5726;42.160;24.746;2023-02-02T04:50:46;99661.06;;;7.14;66.76
11343;BME280;5726;42.160;24.746;2023-02-02T04:53:11;99656.28;;;7.16;66.98
11343;BME280;5726;42.160;24.746;2023-02-02T04:55:37;99666.41;;;7.14;66.72
11343;BME280;5726;42.160;24.746;2023-02-02T04:58:03;99659.78;;;7.36;66.35
11343;BME280;5726;42.160;24.746;2023-02-02T05:00:29;99668.03;;;7.15;66.79
11343;BME280;5726;42.160;24.746;2023-02-02T05:02:54;99662.44;;;7.21;66.95
11343;BME280;5726;42.160;24.746;2023-02-02T05:05:20;99674.72;;;7.22;66.36
11343;BME280;5726;42.160;24.746;2023-02-02T05:07:45;99672.81;;;7.18;66.62
11343;BME280;5726;42.160;24.746;2023-02-02T05:10:11;99679.69;;;6.99;67.05
11343;BME280;5726;42.160;24.746;2023-02-02T05:12:36;99682.91;;;7.06;67.15
11343;BME280;5726;42.160;24.746;2023-02-02T05:15:02;99676.03;;;7.25;66.39
11343;BME280;5726;42.160;24.746;2023-02-02T05:17:29;99684.31;;;7.28;66.29
11343;BME280;5726;42.160;24.746;2023-02-02T05:19:55;99689.63;;;7.18;66.83
11343;BME280;5726;42.160;24.746;2023-02-02T05:22:20;99684.06;;;7.30;66.11
11343;BME280;5726;42.160;24.746;2023-02-02T05:24:46;99685.31;;;7.08;66.66
11343;BME280;5726;42.160;24.746;2023-02-02T05:27:11;99680.06;;;7.42;65.64
11343;BME280;5726;42.160;24.746;2023-02-02T05:29:37;99683.28;;;7.34;65.65
11343;BME280;5726;42.160;24.746;2023-02-02T05:32:02;99683.19;;;7.10;66.49
11343;BME280;5726;42.160;24.746;2023-02-02T05:34:28;99696.00;;;7.17;66.17
11343;BME280;5726;42.160;24.746;2023-02-02T05:36:53;99691.22;;;7.19;65.95
11343;BME280;5726;42.160;24.746;2023-02-02T05:39:19;99694.16;;;7.28;66.13
11343;BME280;5726;42.160;24.746;2023-02-02T05:41:44;99700.03;;;7.25;68.97
11343;BME280;5726;42.160;24.746;2023-02-02T05:44:14;99702.44;;;7.26;66.04
11343;BME280;5726;42.160;24.746;2023-02-02T05:46:40;99692.31;;;7.33;65.96
11343;BME280;5726;42.160;24.746;2023-02-02T05:49:06;99697.19;;;7.66;67.91
11343;BME280;5726;42.160;24.746;2023-02-02T05:51:42;99702.00;;;7.74;67.20
11343;BME280;5726;42.160;24.746;2023-02-02T05:54:09;99695.34;;;7.71;65.35
11343;BME280;5726;42.160;24.746;2023-02-02T05:56:34;99706.53;;;7.54;65.16
11343;BME280;5726;42.160;24.746;2023-02-02T05:59:00;99708.41;;;7.63;64.55
11343;BME280;5726;42.160;24.746;2023-02-02T06:01:26;99701.22;;;7.68;64.68
11343;BME280;5726;42.160;24.746;2023-02-02T06:03:51;99701.53;;;8.11;63.23
11343;BME280;5726;42.160;24.746;2023-02-02T06:06:16;99701.50;;;8.41;62.28
11343;BME280;5726;42.160;24.746;2023-02-02T06:08:42;99705.16;;;8.70;61.66
11343;BME280;5726;42.160;24.746;2023-02-02T06:11:09;99711.03;;;8.82;61.04
11343;BME280;5726;42.160;24.746;2023-02-02T06:13:35;99712.31;;;8.94;60.97
11343;BME280;5726;42.160;24.746;2023-02-02T06:16:00;99710.41;;;9.00;61.09
11343;BME280;5726;42.160;24.746;2023-02-02T06:18:26;99716.22;;;9.16;60.46
11343;BME280;5726;42.160;24.746;2023-02-02T06:21:10;99725.59;;;9.19;60.29
11343;BME280;5726;42.160;24.746;2023-02-02T06:23:36;99722.50;;;9.50;59.38
11343;BME280;5726;42.160;24.746;2023-02-02T06:26:02;99728.78;;;9.74;58.47
11343;BME280;5726;42.160;24.746;2023-02-02T06:28:31;99736.22;;;9.82;58.51
11343;BME280;5726;42.160;24.746;2023-02-02T06:31:02;99732.53;;;9.73;58.30
11343;BME280;5726;42.160;24.746;2023-02-02T06:33:28;99731.31;;;9.51;58.71
11343;BME280;5726;42.160;24.746;2023-02-02T06:35:58;99733.34;;;9.20;59.10
11343;BME280;5726;42.160;24.746;2023-02-02T06:38:24;99737.50;;;8.78;60.56
11343;BME280;5726;42.160;24.746;2023-02-02T06:40:49;99733.53;;;8.61;61.36
11343;BME280;5726;42.160;24.746;2023-02-02T06:43:14;99732.91;;;8.94;60.40
11343;BME280;5726;42.160;24.746;2023-02-02T06:45:40;99725.22;;;8.72;61.16
11343;BME280;5726;42.160;24.746;2023-02-02T06:48:06;99726.56;;;8.60;61.53
11343;BME280;5726;42.160;24.746;2023-02-02T06:50:36;99733.56;;;8.31;62.13
11343;BME280;5726;42.160;24.746;2023-02-02T06:53:01;99725.25;;;8.08;62.86
11343;BME280;5726;42.160;24.746;2023-02-02T06:55:27;99730.63;;;8.23;62.79
11343;BME280;5726;42.160;24.746;2023-02-02T06:57:56;99723.94;;;8.40;62.41
11343;BME280;5726;42.160;24.746;2023-02-02T07:00:22;99728.72;;;8.58;62.14
11343;BME280;5726;42.160;24.746;2023-02-02T07:02:48;99722.78;;;8.86;60.90
11343;BME280;5726;42.160;24.746;2023-02-02T07:05:13;99729.75;;;8.72;61.22
11343;BME280;5726;42.160;24.746;2023-02-02T07:07:39;99731.38;;;8.58;62.05
11343;BME280;5726;42.160;24.746;2023-02-02T07:10:05;99736.72;;;8.48;62.48
11343;BME280;5726;42.160;24.746;2023-02-02T07:12:30;99743.41;;;8.60;63.55
11343;BME280;5726;42.160;24.746;2023-02-02T07:14:56;99746.38;;;8.49;63.61
11343;BME280;5726;42.160;24.746;2023-02-02T07:17:23;99746.88;;;8.66;62.15
11343;BME280;5726;42.160;24.746;2023-02-02T07:19:48;99745.28;;;8.65;63.33
11343;BME280;5726;42.160;24.746;2023-02-02T07:22:14;99744.75;;;8.68;61.99
11343;BME280;5726;42.160;24.746;2023-02-02T07:24:40;99740.38;;;8.97;62.62
11343;BME280;5726;42.160;24.746;2023-02-02T07:27:05;99748.66;;;9.00;61.84
11343;BME280;5726;42.160;24.746;2023-02-02T07:29:31;99749.97;;;9.07;61.63
11343;BME280;5726;42.160;24.746;2023-02-02T07:31:57;99734.19;;;9.11;61.61
11343;BME280;5726;42.160;24.746;2023-02-02T07:34:23;99742.97;;;9.16;60.92
11343;BME280;5726;42.160;24.746;2023-02-02T07:36:48;99740.84;;;9.18;61.09
11343;BME280;5726;42.160;24.746;2023-02-02T07:39:14;99744.06;;;9.15;61.17
11343;BME280;5726;42.160;24.746;2023-02-02T07:41:39;99749.25;;;9.50;59.89
11343;BME280;5726;42.160;24.746;2023-02-02T07:44:05;99743.31;;;9.63;59.58
11343;BME280;5726;42.160;24.746;2023-02-02T07:46:31;99756.16;;;9.61;59.76
11343;BME280;5726;42.160;24.746;2023-02-02T07:48:57;99753.47;;;9.61;59.70
11343;BME280;5726;42.160;24.746;2023-02-02T07:51:24;99747.78;;;9.72;59.43
11343;BME280;5726;42.160;24.746;2023-02-02T07:53:52;99748.69;;;10.01;58.88
11343;BME280;5726;42.160;24.746;2023-02-02T07:56:28;99749.53;;;9.97;58.71
11343;BME280;5726;42.160;24.746;2023-02-02T07:58:55;99755.50;;;9.84;59.44
11343;BME280;5726;42.160;24.746;2023-02-02T08:01:21;99753.31;;;9.86;59.31
11343;BME280;5726;42.160;24.746;2023-02-02T08:03:47;99754.47;;;9.75;60.20
11343;BME280;5726;42.160;24.746;2023-02-02T08:06:18;99753.31;;;9.96;59.92
11343;BME280;5726;42.160;24.746;2023-02-02T08:08:44;99759.84;;;10.13;59.19
11343;BME280;5726;42.160;24.746;2023-02-02T08:11:11;99754.59;;;10.03;59.18
11343;BME280;5726;42.160;24.746;2023-02-02T08:13:38;99749.81;;;9.95;59.10
11343;BME280;5726;42.160;24.746;2023-02-02T08:16:05;99743.88;;;10.31;58.13
11343;BME280;5726;42.160;24.746;2023-02-02T08:18:33;99746.00;;;10.01;58.81
11343;BME280;5726;42.160;24.746;2023-02-02T08:20:59;99744.66;;;10.03;59.18
11343;BME280;5726;42.160;24.746;2023-02-02T08:23:26;99736.03;;;10.11;58.57
11343;BME280;5726;42.160;24.746;2023-02-02T08:25:52;99743.59;;;10.04;58.24
11343;BME280;5726;42.160;24.746;2023-02-02T08:28:18;99746.88;;;9.92;58.48
11343;BME280;5726;42.160;24.746;2023-02-02T08:30:44;99732.69;;;9.86;58.92
11343;BME280;5726;42.160;24.746;2023-02-02T08:33:09;99742.59;;;9.96;58.89
11343;BME280;5726;42.160;24.746;2023-02-02T08:35:42;99730.81;;;10.25;58.32
11343;BME280;5726;42.160;24.746;2023-02-02T08:38:08;99731.06;;;10.28;58.52
11343;BME280;5726;42.160;24.746;2023-02-02T08:40:33;99737.47;;;10.32;57.98
11343;BME280;5726;42.160;24.746;2023-02-02T08:42:58;99729.63;;;10.41;58.44
11343;BME280;5726;42.160;24.746;2023-02-02T08:45:24;99725.66;;;10.85;57.86
11343;BME280;5726;42.160;24.746;2023-02-02T08:47:49;99725.34;;;11.56;70.69
11343;BME280;5726;42.160;24.746;2023-02-02T08:50:16;99734.72;;;12.13;60.90
11343;BME280;5726;42.160;24.746;2023-02-02T08:52:42;99730.75;;;12.24;53.78
11343;BME280;5726;42.160;24.746;2023-02-02T08:55:07;99734.13;;;12.16;54.24
11343;BME280;5726;42.160;24.746;2023-02-02T08:57:33;99722.25;;;12.36;53.31
11343;BME280;5726;42.160;24.746;2023-02-02T08:59:58;99726.31;;;12.65;52.87
11343;BME280;5726;42.160;24.746;2023-02-02T09:02:24;99724.88;;;12.86;52.52
11343;BME280;5726;42.160;24.746;2023-02-02T09:04:49;99718.84;;;12.30;52.91
11343;BME280;5726;42.160;24.746;2023-02-02T09:07:15;99711.09;;;12.42;53.53
11343;BME280;5726;42.160;24.746;2023-02-02T09:09:40;99709.75;;;12.58;52.44
11343;BME280;5726;42.160;24.746;2023-02-02T09:12:06;99702.16;;;12.60;51.98
11343;BME280;5726;42.160;24.746;2023-02-02T09:14:31;99699.41;;;12.65;51.62
11343;BME280;5726;42.160;24.746;2023-02-02T09:16:57;99697.16;;;12.98;50.51
11343;BME280;5726;42.160;24.746;2023-02-02T09:19:22;99701.25;;;13.36;50.08
11343;BME280;5726;42.160;24.746;2023-02-02T09:21:49;99689.50;;;13.67;49.24
11343;BME280;5726;42.160;24.746;2023-02-02T09:24:15;99683.16;;;13.50;48.06
11343;BME280;5726;42.160;24.746;2023-02-02T09:26:42;99682.00;;;13.16;48.64
11343;BME280;5726;42.160;24.746;2023-02-02T09:29:14;99675.94;;;13.59;48.12
11343;BME280;5726;42.160;24.746;2023-02-02T09:31:40;99666.22;;;13.71;48.06
11343;BME280;5726;42.160;24.746;2023-02-02T09:34:08;99656.84;;;13.90;46.71
11343;BME280;5726;42.160;24.746;2023-02-02T09:36:34;99658.22;;;13.80;46.39
11343;BME280;5726;42.160;24.746;2023-02-02T09:39:00;99657.09;;;14.02;44.73
11343;BME280;5726;42.160;24.746;2023-02-02T09:52:16;99640.53;;;13.17;46.92
11343;BME280;5726;42.160;24.746;2023-02-02T09:54:46;99647.13;;;13.46;46.24
11343;BME280;5726;42.160;24.746;2023-02-02T09:57:19;99640.84;;;13.50;45.83
11343;BME280;5726;42.160;24.746;2023-02-02T09:59:48;99634.25;;;13.21;47.52
11343;BME280;5726;42.160;24.746;2023-02-02T10:02:25;99634.53;;;13.55;46.59
11343;BME280;5726;42.160;24.746;2023-02-02T10:04:55;99618.75;;;13.62;46.47
11343;BME280;5726;42.160;24.746;2023-02-02T10:07:36;99612.25;;;13.84;45.57
11343;BME280;5726;42.160;24.746;2023-02-02T10:10:26;99612.03;;;13.51;46.35
11343;BME280;5726;42.160;24.746;2023-02-02T10:12:56;99602.16;;;13.46;47.46
11343;BME280;5726;42.160;24.746;2023-02-02T10:23:37;99568.41;;;13.49;46.69
11343;BME280;5726;42.160;24.746;2023-02-02T10:26:12;99569.63;;;13.43;47.45
11343;BME280;5726;42.160;24.746;2023-02-02T10:32:09;99572.41;;;13.16;48.61
11343;BME280;5726;42.160;24.746;2023-02-02T10:45:03;99557.53;;;13.54;44.24
11343;BME280;5726;42.160;24.746;2023-02-02T10:47:36;99541.63;;;13.66;44.36
11343;BME280;5726;42.160;24.746;2023-02-02T10:50:12;99539.94;;;13.78;44.53
11343;BME280;5726;42.160;24.746;2023-02-02T10:53:00;99537.16;;;13.91;43.66
11343;BME280;5726;42.160;24.746;2023-02-02T10:55:40;99537.56;;;13.77;43.95
11343;BME280;5726;42.160;24.746;2023-02-02T11:00:45;99524.13;;;13.85;44.00
11343;BME280;5726;42.160;24.746;2023-02-02T11:03:16;99517.53;;;13.99;42.99
11343;BME280;5726;42.160;24.746;2023-02-02T11:05:43;99523.31;;;14.06;43.36
11343;BME280;5726;42.160;24.746;2023-02-02T11:08:42;99513.25;;;13.68;43.88
11343;BME280;5726;42.160;24.746;2023-02-02T11:13:41;99501.50;;;14.25;43.21
11343;BME280;5726;42.160;24.746;2023-02-02T11:18:42;99482.59;;;14.16;42.68
11343;BME280;5726;42.160;24.746;2023-02-02T11:24:15;99470.91;;;14.37;42.57
11343;BME280;5726;42.160;24.746;2023-02-02T11:26:59;99462.69;;;14.51;41.55
11343;BME280;5726;42.160;24.746;2023-02-02T11:32:27;99432.53;;;14.57;41.11
11343;BME280;5726;42.160;24.746;2023-02-02T11:35:16;99419.53;;;14.68;39.93
11343;BME280;5726;42.160;24.746;2023-02-02T11:43:19;99408.09;;;14.71;37.01
11343;BME280;5726;42.160;24.746;2023-02-02T11:45:54;99403.19;;;14.56;36.55
11343;BME280;5726;42.160;24.746;2023-02-02T11:48:27;99404.78;;;14.40;35.73
11343;BME280;5726;42.160;24.746;2023-02-02T11:50:55;99385.09;;;14.48;35.66
11343;BME280;5726;42.160;24.746;2023-02-02T11:53:41;99400.00;;;14.71;36.01
11343;BME280;5726;42.160;24.746;2023-02-02T11:56:24;99384.13;;;14.94;35.82
11343;BME280;5726;42.160;24.746;2023-02-02T11:58:51;99392.72;;;14.96;35.24
11343;BME280;5726;42.160;24.746;2023-02-02T12:01:37;99387.31;;;14.63;33.53
11343;BME280;5726;42.160;24.746;2023-02-02T12:06:37;99397.63;;;14.78;32.92
11343;BME280;5726;42.160;24.746;2023-02-02T12:09:12;99392.38;;;14.56;34.19
11343;BME280;5726;42.160;24.746;2023-02-02T12:11:55;99395.88;;;14.48;34.56
11343;BME280;5726;42.160;24.746;2023-02-02T12:30:26;99382.53;;;14.18;35.58
11343;BME280;5726;42.160;24.746;2023-02-02T12:39:01;99379.06;;;14.51;36.59
11343;BME280;5726;42.160;24.746;2023-02-02T12:44:23;99380.44;;;14.23;36.53
11343;BME280;5726;42.160;24.746;2023-02-02T12:47:00;99372.53;;;14.35;34.80
11343;BME280;5726;42.160;24.746;2023-02-02T12:50:20;99375.50;;;14.08;34.94
11343;BME280;5726;42.160;24.746;2023-02-02T12:52:51;99358.50;;;13.99;34.03
11343;BME280;5726;42.160;24.746;2023-02-02T12:55:43;99363.88;;;13.91;34.19
11343;BME280;5726;42.160;24.746;2023-02-02T12:58:22;99361.31;;;13.78;34.19
11343;BME280;5726;42.160;24.746;2023-02-02T13:03:37;99373.78;;;13.74;33.79
11343;BME280;5726;42.160;24.746;2023-02-02T13:09:13;99351.66;;;13.93;33.97
11343;BME280;5726;42.160;24.746;2023-02-02T13:11:51;99347.06;;;13.94;34.48
11343;BME280;5726;42.160;24.746;2023-02-02T13:17:16;99344.97;;;13.83;33.80
11343;BME280;5726;42.160;24.746;2023-02-02T13:19:48;99336.75;;;13.87;33.77
11343;BME280;5726;42.160;24.746;2023-02-02T13:22:29;99336.84;;;13.66;33.72
11343;BME280;5726;42.160;24.746;2023-02-02T13:24:59;99322.59;;;13.74;33.82
11343;BME280;5726;42.160;24.746;2023-02-02T13:27:28;99330.69;;;13.74;33.58
11343;BME280;5726;42.160;24.746;2023-02-02T13:30:04;99330.38;;;13.75;33.71
11343;BME280;5726;42.160;24.746;2023-02-02T13:32:40;99322.75;;;13.77;34.25
11343;BME280;5726;42.160;24.746;2023-02-02T13:38:17;99327.41;;;14.02;34.45
11343;BME280;5726;42.160;24.746;2023-02-02T13:40:44;99314.25;;;13.84;34.49
11343;BME280;5726;42.160;24.746;2023-02-02T13:49:15;99308.75;;;14.14;32.39
11343;BME280;5726;42.160;24.746;2023-02-02T13:57:18;99296.34;;;13.96;32.42
11343;BME280;5726;42.160;24.746;2023-02-02T14:04:59;99318.75;;;13.19;40.91
11343;BME280;5726;42.160;24.746;2023-02-02T14:07:39;99296.66;;;12.79;46.38
11343;BME280;5726;42.160;24.746;2023-02-02T14:11:04;99321.56;;;12.05;51.58
11343;BME280;5726;42.160;24.746;2023-02-02T14:15:54;99347.84;;;11.82;54.12
11343;BME280;5726;42.160;24.746;2023-02-02T14:26:54;99350.53;;;11.82;53.98
11343;BME280;5726;42.160;24.746;2023-02-02T14:37:54;99371.00;;;12.04;49.88
11343;BME280;5726;42.160;24.746;2023-02-02T14:43:41;99370.41;;;12.07;48.76
11343;BME280;5726;42.160;24.746;2023-02-02T14:49:04;99383.84;;;12.07;50.19
11343;BME280;5726;42.160;24.746;2023-02-02T14:51:33;99384.31;;;12.09;50.68
11343;BME280;5726;42.160;24.746;2023-02-02T14:53:59;99386.41;;;12.12;51.00
11343;BME280;5726;42.160;24.746;2023-02-02T14:56:42;99378.84;;;12.28;51.03
11343;BME280;5726;42.160;24.746;2023-02-02T14:59:17;99389.00;;;12.17;51.57
11343;BME280;5726;42.160;24.746;2023-02-02T15:01:56;99387.53;;;12.11;52.19
11343;BME280;5726;42.160;24.746;2023-02-02T15:04:26;99383.81;;;12.21;52.25
11343;BME280;5726;42.160;24.746;2023-02-02T15:06:52;99378.88;;;12.36;52.11
11343;BME280;5726;42.160;24.746;2023-02-02T15:14:56;99375.75;;;12.21;53.52
11343;BME280;5726;42.160;24.746;2023-02-02T15:20:21;99374.59;;;11.87;54.81
11343;BME280;5726;42.160;24.746;2023-02-02T15:23:04;99384.75;;;11.63;56.11
11343;BME280;5726;42.160;24.746;2023-02-02T15:25:46;99387.44;;;11.76;55.19
11343;BME280;5726;42.160;24.746;2023-02-02T15:31:05;99401.22;;;11.43;56.53
11343;BME280;5726;42.160;24.746;2023-02-02T15:33:36;99411.53;;;11.36;56.18
11343;BME280;5726;42.160;24.746;2023-02-02T15:36:09;99412.03;;;11.38;56.83
11343;BME280;5726;42.160;24.746;2023-02-02T15:38:38;99414.66;;;11.43;56.76
11343;BME280;5726;42.160;24.746;2023-02-02T15:41:35;99422.34;;;11.49;58.30
11343;BME280;5726;42.160;24.746;2023-02-02T15:44:17;99419.19;;;11.88;56.72
11343;BME280;5726;42.160;24.746;2023-02-02T15:46:43;99435.47;;;11.51;57.15
11343;BME280;5726;42.160;24.746;2023-02-02T15:51:48;99454.16;;;11.56;56.44
11343;BME280;5726;42.160;24.746;2023-02-02T15:54:26;99459.75;;;11.59;56.25
11343;BME280;5726;42.160;24.746;2023-02-02T15:56:53;99464.81;;;11.61;55.56
11343;BME280;5726;42.160;24.746;2023-02-02T15:59:25;99473.72;;;11.25;56.82
11343;BME280;5726;42.160;24.746;2023-02-02T16:07:48;99482.84;;;11.10;56.30
11343;BME280;5726;42.160;24.746;2023-02-02T16:10:19;99494.91;;;11.26;55.78
11343;BME280;5726;42.160;24.746;2023-02-02T16:12:45;99499.09;;;11.32;55.93
11343;BME280;5726;42.160;24.746;2023-02-02T16:15:26;99542.59;;;10.97;57.00
11343;BME280;5726;42.160;24.746;2023-02-02T16:17:59;99547.06;;;10.84;56.83
11343;BME280;5726;42.160;24.746;2023-02-02T16:20:26;99581.47;;;10.35;58.69